Accueil
METAR-TAF:

METAR-TAF

Aéroports :

Saint-Yan, France

Aéroport de Saint-Yan

latitude: 46-24-45N, longitude: 004-00-48E, altitude: 244 m

Observation

Le bulletin a été fait il y a 16 minutes, à 16:30 UTC
Vent 8 kt de nord/nord-ouest, variant entre ouest/nord-ouest et nord
Température 21°C
Humidité 40%
Pression 1022 hPa
Visibilité 10 km ou plus
pas de nuages en-dessous de 1500 mètres et pas de cumulonimbus.

METAR: LFLN 191630Z AUTO 33008KT 290V350 CAVOK 21/07 Q1022 NOSIG

Heure: 18:46 (16:46 UTC)

Prévision

Le bulletin a été fait il y a 2 heures et 46 minutes, à 14:00 UTC
Prévision valable du 19 à 15 UTC au 19 à 24 UTC
Vent 8 kt de nord/nord-ouest
Visibilité 10 km ou plus
pas de nuages en-dessous de 1500 mètres et pas de cumulonimbus.

TAF: LFLN 191400Z 1915/1924 34008KT CAVOK

Observations et prévisions météorologiques de plus de 4000 aéroports (messages METAR et TAF).

Les stations disponibles sont représentées par des disques jaunes et rouges sur la carte.

Passer la souris dessus pour voir le nom de la station.

Cliquer dessus pour voir les observations et prévisions météorologiques.

Pour changer de carte: cliquez sur les boutons verts avec une croix noire pour zoomer, sur le bouton vert avec un tiret pour effectuer un zoom arrière, ou sur les flèches vertes pour les cartes adjacentes.


METAR-TAF: